sensor_id;sensor_type;location;lat;lon;timestamp;pressure;altitude;pressure_sealevel;temperature;humidity
36788;BME280;22738;45.560;9.434;2023-05-08T00:05:52;99938.97;;;18.77;100.00
36788;BME280;22738;45.560;9.434;2023-05-08T00:12:35;99928.19;;;18.80;100.00
36788;BME280;22738;45.560;9.434;2023-05-08T00:19:16;99921.34;;;18.69;100.00
36788;BME280;22738;45.560;9.434;2023-05-08T00:25:57;99913.25;;;18.63;100.00
36788;BME280;22738;45.560;9.434;2023-05-08T00:32:38;99915.28;;;18.69;100.00
36788;BME280;22738;45.560;9.434;2023-05-08T00:39:20;99914.25;;;18.52;100.00
36788;BME280;22738;45.560;9.434;2023-05-08T00:46:01;99909.53;;;18.56;100.00
36788;BME280;22738;45.560;9.434;2023-05-08T00:52:42;99913.91;;;18.65;100.00
36788;BME280;22738;45.560;9.434;2023-05-08T00:59:23;99933.13;;;18.28;100.00
36788;BME280;22738;45.560;9.434;2023-05-08T01:06:05;99931.19;;;18.30;100.00
36788;BME280;22738;45.560;9.434;2023-05-08T01:13:13;99938.53;;;18.17;100.00
36788;BME280;22738;45.560;9.434;2023-05-08T01:34:14;99942.00;;;18.08;100.00
36788;BME280;22738;45.560;9.434;2023-05-08T01:47:43;99967.72;;;18.05;100.00
36788;BME280;22738;45.560;9.434;2023-05-08T01:54:37;99988.28;;;18.00;100.00
36788;BME280;22738;45.560;9.434;2023-05-08T02:01:23;100000.38;;;18.20;100.00
36788;BME280;22738;45.560;9.434;2023-05-08T02:08:07;100018.16;;;18.35;100.00
36788;BME280;22738;45.560;9.434;2023-05-08T02:14:51;100027.28;;;18.50;100.00
36788;BME280;22738;45.560;9.434;2023-05-08T02:21:34;100029.06;;;18.60;100.00
36788;BME280;22738;45.560;9.434;2023-05-08T02:28:17;100026.69;;;18.57;100.00
36788;BME280;22738;45.560;9.434;2023-05-08T02:34:59;100017.88;;;18.58;100.00
36788;BME280;22738;45.560;9.434;2023-05-08T02:41:40;100021.19;;;18.40;100.00
36788;BME280;22738;45.560;9.434;2023-05-08T02:48:32;100020.09;;;18.43;100.00
36788;BME280;22738;45.560;9.434;2023-05-08T03:02:11;100032.03;;;17.99;100.00
36788;BME280;22738;45.560;9.434;2023-05-08T03:08:56;100040.31;;;18.23;100.00
36788;BME280;22738;45.560;9.434;2023-05-08T03:15:58;100041.19;;;17.76;100.00
36788;BME280;22738;45.560;9.434;2023-05-08T03:22:41;100048.09;;;17.58;100.00
36788;BME280;22738;45.560;9.434;2023-05-08T03:29:24;100037.88;;;17.55;100.00
36788;BME280;22738;45.560;9.434;2023-05-08T03:36:07;100041.41;;;17.35;100.00
36788;BME280;22738;45.560;9.434;2023-05-08T03:42:49;100040.03;;;17.31;100.00
36788;BME280;22738;45.560;9.434;2023-05-08T03:49:31;100043.03;;;17.17;100.00
36788;BME280;22738;45.560;9.434;2023-05-08T03:56:13;100045.47;;;17.08;100.00
36788;BME280;22738;45.560;9.434;2023-05-08T04:03:20;100054.25;;;16.98;100.00
36788;BME280;22738;45.560;9.434;2023-05-08T04:10:05;100053.13;;;16.91;100.00
36788;BME280;22738;45.560;9.434;2023-05-08T04:16:50;100052.84;;;16.84;100.00
36788;BME280;22738;45.560;9.434;2023-05-08T04:23:32;100049.53;;;16.82;100.00
36788;BME280;22738;45.560;9.434;2023-05-08T04:30:14;100063.25;;;16.75;100.00
36788;BME280;22738;45.560;9.434;2023-05-08T04:36:56;100069.34;;;16.75;100.00
36788;BME280;22738;45.560;9.434;2023-05-08T04:43:37;100079.94;;;16.74;100.00
36788;BME280;22738;45.560;9.434;2023-05-08T04:50:20;100082.28;;;16.77;100.00
36788;BME280;22738;45.560;9.434;2023-05-08T04:57:01;100082.34;;;16.86;100.00
36788;BME280;22738;45.560;9.434;2023-05-08T05:03:42;100084.59;;;17.00;100.00
36788;BME280;22738;45.560;9.434;2023-05-08T05:10:25;100092.91;;;17.15;100.00
36788;BME280;22738;45.560;9.434;2023-05-08T05:17:08;100091.53;;;17.11;100.00
36788;BME280;22738;45.560;9.434;2023-05-08T05:23:49;100088.78;;;17.13;100.00
36788;BME280;22738;45.560;9.434;2023-05-08T05:30:30;100087.38;;;17.08;100.00
36788;BME280;22738;45.560;9.434;2023-05-08T05:37:11;100091.13;;;17.16;100.00
36788;BME280;22738;45.560;9.434;2023-05-08T05:43:52;100100.00;;;17.34;100.00
36788;BME280;22738;45.560;9.434;2023-05-08T05:50:36;100114.66;;;17.46;100.00
36788;BME280;22738;45.560;9.434;2023-05-08T05:57:19;100103.78;;;17.50;100.00
36788;BME280;22738;45.560;9.434;2023-05-08T06:04:00;100107.25;;;17.51;100.00
36788;BME280;22738;45.560;9.434;2023-05-08T06:10:46;100110.03;;;17.59;100.00
36788;BME280;22738;45.560;9.434;2023-05-08T06:17:33;100114.75;;;17.65;100.00
36788;BME280;22738;45.560;9.434;2023-05-08T06:24:16;100111.72;;;17.69;100.00
36788;BME280;22738;45.560;9.434;2023-05-08T06:31:07;100126.78;;;17.96;100.00
36788;BME280;22738;45.560;9.434;2023-05-08T06:37:48;100125.94;;;18.24;100.00
36788;BME280;22738;45.560;9.434;2023-05-08T06:44:29;100122.34;;;18.25;100.00
36788;BME280;22738;45.560;9.434;2023-05-08T06:51:10;100119.16;;;18.41;100.00
36788;BME280;22738;45.560;9.434;2023-05-08T06:57:54;100126.47;;;18.57;100.00
36788;BME280;22738;45.560;9.434;2023-05-08T07:04:37;100125.94;;;18.63;100.00
36788;BME280;22738;45.560;9.434;2023-05-08T07:11:19;100118.44;;;18.68;100.00
36788;BME280;22738;45.560;9.434;2023-05-08T07:18:02;100121.22;;;18.57;100.00
36788;BME280;22738;45.560;9.434;2023-05-08T07:24:43;100129.25;;;18.65;100.00
36788;BME280;22738;45.560;9.434;2023-05-08T07:31:24;100136.34;;;18.91;100.00
36788;BME280;22738;45.560;9.434;2023-05-08T07:38:06;100142.69;;;18.98;100.00
36788;BME280;22738;45.560;9.434;2023-05-08T07:44:47;100144.22;;;19.28;100.00
36788;BME280;22738;45.560;9.434;2023-05-08T07:51:28;100136.44;;;19.36;100.00
36788;BME280;22738;45.560;9.434;2023-05-08T07:58:10;100145.69;;;19.67;100.00
36788;BME280;22738;45.560;9.434;2023-05-08T08:04:51;100153.72;;;19.66;100.00
36788;BME280;22738;45.560;9.434;2023-05-08T08:11:32;100162.75;;;19.63;100.00
36788;BME280;22738;45.560;9.434;2023-05-08T08:18:13;100156.00;;;19.51;100.00
36788;BME280;22738;45.560;9.434;2023-05-08T08:24:54;100150.22;;;19.92;100.00
36788;BME280;22738;45.560;9.434;2023-05-08T08:31:36;100161.13;;;19.80;100.00
36788;BME280;22738;45.560;9.434;2023-05-08T08:38:17;100156.41;;;20.01;100.00
36788;BME280;22738;45.560;9.434;2023-05-08T08:44:59;100152.84;;;19.75;100.00
36788;BME280;22738;45.560;9.434;2023-05-08T08:51:50;100160.22;;;20.07;100.00
36788;BME280;22738;45.560;9.434;2023-05-08T08:58:35;100156.50;;;20.27;100.00
36788;BME280;22738;45.560;9.434;2023-05-08T09:05:17;100150.25;;;20.45;100.00
36788;BME280;22738;45.560;9.434;2023-05-08T09:12:01;100150.69;;;20.84;100.00
36788;BME280;22738;45.560;9.434;2023-05-08T09:18:42;100147.38;;;21.42;100.00
36788;BME280;22738;45.560;9.434;2023-05-08T09:25:39;100144.91;;;21.98;100.00
36788;BME280;22738;45.560;9.434;2023-05-08T09:32:21;100144.25;;;22.20;100.00
36788;BME280;22738;45.560;9.434;2023-05-08T09:39:04;100147.56;;;22.38;100.00
36788;BME280;22738;45.560;9.434;2023-05-08T09:45:51;100149.56;;;22.52;100.00
36788;BME280;22738;45.560;9.434;2023-05-08T09:52:33;100156.28;;;23.03;100.00
36788;BME280;22738;45.560;9.434;2023-05-08T09:59:25;100171.72;;;23.69;100.00
36788;BME280;22738;45.560;9.434;2023-05-08T10:06:11;100158.19;;;24.26;100.00
36788;BME280;22738;45.560;9.434;2023-05-08T10:12:54;100156.97;;;25.32;100.00
36788;BME280;22738;45.560;9.434;2023-05-08T10:19:37;100151.97;;;24.70;100.00
36788;BME280;22738;45.560;9.434;2023-05-08T10:26:29;100148.47;;;24.78;100.00
36788;BME280;22738;45.560;9.434;2023-05-08T10:33:13;100141.63;;;25.78;100.00
36788;BME280;22738;45.560;9.434;2023-05-08T10:39:56;100156.31;;;24.86;100.00
36788;BME280;22738;45.560;9.434;2023-05-08T10:46:58;100144.81;;;24.56;100.00
36788;BME280;22738;45.560;9.434;2023-05-08T11:07:54;100137.88;;;25.07;100.00
36788;BME280;22738;45.560;9.434;2023-05-08T11:14:38;100127.22;;;23.95;100.00
36788;BME280;22738;45.560;9.434;2023-05-08T11:21:21;100127.22;;;23.42;100.00
36788;BME280;22738;45.560;9.434;2023-05-08T11:28:07;100127.78;;;24.14;100.00
36788;BME280;22738;45.560;9.434;2023-05-08T11:34:49;100121.44;;;24.23;100.00
36788;BME280;22738;45.560;9.434;2023-05-08T11:41:30;100124.59;;;24.78;100.00
36788;BME280;22738;45.560;9.434;2023-05-08T11:48:13;100122.09;;;23.71;100.00
36788;BME280;22738;45.560;9.434;2023-05-08T11:55:03;100119.75;;;24.22;100.00
36788;BME280;22738;45.560;9.434;2023-05-08T12:01:49;100127.22;;;25.36;100.00
36788;BME280;22738;45.560;9.434;2023-05-08T12:08:30;100116.75;;;24.02;100.00
36788;BME280;22738;45.560;9.434;2023-05-08T12:15:13;100120.41;;;23.48;100.00
36788;BME280;22738;45.560;9.434;2023-05-08T12:21:55;100123.38;;;24.06;100.00
36788;BME280;22738;45.560;9.434;2023-05-08T12:28:38;100119.28;;;25.07;100.00
36788;BME280;22738;45.560;9.434;2023-05-08T12:35:20;100112.84;;;25.31;100.00
36788;BME280;22738;45.560;9.434;2023-05-08T12:42:01;100109.84;;;25.19;100.00
36788;BME280;22738;45.560;9.434;2023-05-08T12:48:42;100113.56;;;24.15;100.00
36788;BME280;22738;45.560;9.434;2023-05-08T12:55:26;100103.03;;;23.53;100.00
36788;BME280;22738;45.560;9.434;2023-05-08T13:02:15;100089.72;;;24.15;100.00
36788;BME280;22738;45.560;9.434;2023-05-08T13:08:57;100082.66;;;24.22;100.00
36788;BME280;22738;45.560;9.434;2023-05-08T13:15:38;100074.34;;;23.87;100.00
36788;BME280;22738;45.560;9.434;2023-05-08T13:22:19;100067.25;;;23.57;100.00
36788;BME280;22738;45.560;9.434;2023-05-08T13:29:02;100059.25;;;23.88;100.00
36788;BME280;22738;45.560;9.434;2023-05-08T13:35:43;100060.81;;;23.82;100.00
36788;BME280;22738;45.560;9.434;2023-05-08T13:42:24;100046.25;;;24.24;100.00
36788;BME280;22738;45.560;9.434;2023-05-08T13:49:06;100044.19;;;24.11;100.00
36788;BME280;22738;45.560;9.434;2023-05-08T13:55:47;100038.75;;;24.04;100.00
36788;BME280;22738;45.560;9.434;2023-05-08T14:02:28;100032.22;;;23.55;100.00
36788;BME280;22738;45.560;9.434;2023-05-08T14:09:10;100029.25;;;23.95;100.00
36788;BME280;22738;45.560;9.434;2023-05-08T14:15:51;100037.03;;;24.49;100.00
36788;BME280;22738;45.560;9.434;2023-05-08T14:22:32;100014.22;;;25.13;100.00
36788;BME280;22738;45.560;9.434;2023-05-08T14:29:13;100012.47;;;24.99;100.00
36788;BME280;22738;45.560;9.434;2023-05-08T14:35:54;100019.47;;;24.62;100.00
36788;BME280;22738;45.560;9.434;2023-05-08T14:42:35;100007.22;;;24.18;100.00
36788;BME280;22738;45.560;9.434;2023-05-08T14:49:16;100011.41;;;24.27;100.00
36788;BME280;22738;45.560;9.434;2023-05-08T14:55:57;100011.47;;;23.81;100.00
36788;BME280;22738;45.560;9.434;2023-05-08T15:02:39;100002.25;;;23.77;100.00
36788;BME280;22738;45.560;9.434;2023-05-08T15:09:20;100003.06;;;23.02;100.00
36788;BME280;22738;45.560;9.434;2023-05-08T15:16:01;100001.22;;;23.33;100.00
36788;BME280;22738;45.560;9.434;2023-05-08T15:22:42;100002.69;;;23.66;100.00
36788;BME280;22738;45.560;9.434;2023-05-08T15:29:23;100010.63;;;23.66;100.00
36788;BME280;22738;45.560;9.434;2023-05-08T15:36:06;100016.78;;;23.59;100.00
36788;BME280;22738;45.560;9.434;2023-05-08T15:42:47;100009.72;;;23.51;100.00
36788;BME280;22738;45.560;9.434;2023-05-08T15:49:28;100019.97;;;23.54;100.00
36788;BME280;22738;45.560;9.434;2023-05-08T15:56:09;100026.28;;;22.84;100.00
36788;BME280;22738;45.560;9.434;2023-05-08T16:02:52;100033.63;;;22.49;100.00
36788;BME280;22738;45.560;9.434;2023-05-08T16:09:33;100024.00;;;22.73;100.00
36788;BME280;22738;45.560;9.434;2023-05-08T16:16:14;100033.22;;;22.77;100.00
36788;BME280;22738;45.560;9.434;2023-05-08T16:22:55;100034.28;;;22.51;100.00
36788;BME280;22738;45.560;9.434;2023-05-08T16:29:36;100040.41;;;22.60;100.00
36788;BME280;22738;45.560;9.434;2023-05-08T16:36:18;100035.00;;;22.21;100.00
36788;BME280;22738;45.560;9.434;2023-05-08T16:42:59;100033.66;;;22.33;100.00
36788;BME280;22738;45.560;9.434;2023-05-08T16:49:40;100028.50;;;22.40;100.00
36788;BME280;22738;45.560;9.434;2023-05-08T16:56:21;100016.16;;;22.32;100.00
36788;BME280;22738;45.560;9.434;2023-05-08T17:03:03;100010.88;;;22.24;100.00
36788;BME280;22738;45.560;9.434;2023-05-08T17:09:45;100013.84;;;22.37;100.00
36788;BME280;22738;45.560;9.434;2023-05-08T17:16:28;100027.00;;;22.53;100.00
36788;BME280;22738;45.560;9.434;2023-05-08T17:23:10;100040.88;;;22.55;100.00
36788;BME280;22738;45.560;9.434;2023-05-08T17:29:51;100039.44;;;22.37;100.00
36788;BME280;22738;45.560;9.434;2023-05-08T17:36:32;100045.44;;;21.98;100.00
36788;BME280;22738;45.560;9.434;2023-05-08T17:43:13;100048.88;;;21.91;100.00
36788;BME280;22738;45.560;9.434;2023-05-08T17:49:54;100061.34;;;21.57;100.00
36788;BME280;22738;45.560;9.434;2023-05-08T17:56:35;100067.59;;;21.48;100.00
36788;BME280;22738;45.560;9.434;2023-05-08T18:03:16;100078.44;;;21.37;100.00
36788;BME280;22738;45.560;9.434;2023-05-08T18:09:57;100084.56;;;21.03;100.00
36788;BME280;22738;45.560;9.434;2023-05-08T18:16:38;100078.19;;;20.80;100.00
36788;BME280;22738;45.560;9.434;2023-05-08T18:23:19;100090.91;;;20.59;100.00
36788;BME280;22738;45.560;9.434;2023-05-08T18:30:01;100103.41;;;20.57;100.00
36788;BME280;22738;45.560;9.434;2023-05-08T18:36:45;100106.22;;;20.38;100.00
36788;BME280;22738;45.560;9.434;2023-05-08T18:43:26;100107.81;;;20.31;100.00
36788;BME280;22738;45.560;9.434;2023-05-08T18:50:07;100114.28;;;20.19;100.00
36788;BME280;22738;45.560;9.434;2023-05-08T18:56:49;100141.13;;;20.05;100.00
36788;BME280;22738;45.560;9.434;2023-05-08T19:03:30;100144.72;;;19.86;100.00
36788;BME280;22738;45.560;9.434;2023-05-08T19:10:11;100158.34;;;19.81;100.00
36788;BME280;22738;45.560;9.434;2023-05-08T19:16:52;100156.97;;;19.77;100.00
36788;BME280;22738;45.560;9.434;2023-05-08T19:23:33;100165.44;;;19.99;100.00
36788;BME280;22738;45.560;9.434;2023-05-08T19:30:14;100167.22;;;20.16;100.00
36788;BME280;22738;45.560;9.434;2023-05-08T19:36:55;100172.94;;;19.93;100.00
36788;BME280;22738;45.560;9.434;2023-05-08T19:43:36;100190.22;;;19.78;100.00
36788;BME280;22738;45.560;9.434;2023-05-08T19:50:17;100192.06;;;19.68;100.00
36788;BME280;22738;45.560;9.434;2023-05-08T19:56:58;100204.16;;;19.61;100.00
36788;BME280;22738;45.560;9.434;2023-05-08T20:03:40;100194.50;;;19.52;100.00
36788;BME280;22738;45.560;9.434;2023-05-08T20:10:21;100198.00;;;19.70;100.00
36788;BME280;22738;45.560;9.434;2023-05-08T20:17:02;100190.84;;;19.63;100.00
36788;BME280;22738;45.560;9.434;2023-05-08T20:23:43;100194.69;;;19.68;100.00
36788;BME280;22738;45.560;9.434;2023-05-08T20:30:24;100195.56;;;19.59;100.00
36788;BME280;22738;45.560;9.434;2023-05-08T20:37:05;100195.28;;;19.35;100.00
36788;BME280;22738;45.560;9.434;2023-05-08T20:43:46;100204.16;;;19.15;100.00
36788;BME280;22738;45.560;9.434;2023-05-08T20:50:27;100199.88;;;19.14;100.00
36788;BME280;22738;45.560;9.434;2023-05-08T20:57:08;100194.63;;;19.14;100.00
36788;BME280;22738;45.560;9.434;2023-05-08T21:03:49;100196.56;;;19.21;100.00
36788;BME280;22738;45.560;9.434;2023-05-08T21:10:30;100196.00;;;19.18;100.00
36788;BME280;22738;45.560;9.434;2023-05-08T21:17:11;100189.13;;;19.07;100.00
36788;BME280;22738;45.560;9.434;2023-05-08T21:23:52;100202.03;;;18.91;100.00
36788;BME280;22738;45.560;9.434;2023-05-08T21:30:33;100194.44;;;18.79;100.00
36788;BME280;22738;45.560;9.434;2023-05-08T21:37:15;100199.72;;;18.69;100.00
36788;BME280;22738;45.560;9.434;2023-05-08T21:43:56;100204.41;;;18.66;100.00
36788;BME280;22738;45.560;9.434;2023-05-08T21:50:37;100204.81;;;18.51;100.00
36788;BME280;22738;45.560;9.434;2023-05-08T21:57:18;100204.66;;;18.43;100.00
36788;BME280;22738;45.560;9.434;2023-05-08T22:03:59;100193.91;;;18.37;100.00
36788;BME280;22738;45.560;9.434;2023-05-08T22:10:40;100201.91;;;18.35;100.00
36788;BME280;22738;45.560;9.434;2023-05-08T22:17:23;100200.66;;;18.39;100.00
36788;BME280;22738;45.560;9.434;2023-05-08T22:24:05;100207.13;;;18.35;100.00
36788;BME280;22738;45.560;9.434;2023-05-08T22:30:46;100207.69;;;18.20;100.00
36788;BME280;22738;45.560;9.434;2023-05-08T22:37:28;100199.97;;;18.18;100.00
36788;BME280;22738;45.560;9.434;2023-05-08T22:44:10;100195.41;;;18.01;100.00
36788;BME280;22738;45.560;9.434;2023-05-08T22:50:51;100190.84;;;18.03;100.00
36788;BME280;22738;45.560;9.434;2023-05-08T22:57:32;100196.88;;;17.85;100.00
36788;BME280;22738;45.560;9.434;2023-05-08T23:04:15;100188.03;;;17.86;100.00
36788;BME280;22738;45.560;9.434;2023-05-08T23:10:56;100192.19;;;17.88;100.00
36788;BME280;22738;45.560;9.434;2023-05-08T23:17:37;100201.16;;;17.76;100.00
36788;BME280;22738;45.560;9.434;2023-05-08T23:24:18;100184.72;;;17.74;100.00
36788;BME280;22738;45.560;9.434;2023-05-08T23:30:59;100180.69;;;17.70;100.00
36788;BME280;22738;45.560;9.434;2023-05-08T23:37:40;100181.94;;;17.66;100.00
36788;BME280;22738;45.560;9.434;2023-05-08T23:44:21;100172.28;;;17.66;100.00
36788;BME280;22738;45.560;9.434;2023-05-08T23:51:02;100167.25;;;17.54;100.00
36788;BME280;22738;45.560;9.434;2023-05-08T23:57:43;100166.81;;;17.49;100.00
